createdAt,value
2017-03-08T00:00:34.866Z,20.77
2017-03-08T00:01:45.157Z,20.8
2017-03-08T00:02:55.832Z,20.8
2017-03-08T00:04:06.105Z,20.74
2017-03-08T00:05:15.989Z,20.77
2017-03-08T00:06:26.508Z,20.74
2017-03-08T00:07:37.234Z,20.77
2017-03-08T00:08:47.896Z,20.77
2017-03-08T00:09:58.579Z,20.82
2017-03-08T00:11:08.457Z,20.74
2017-03-08T00:12:18.901Z,20.69
2017-03-08T00:13:29.169Z,20.67
2017-03-08T00:14:39.066Z,20.66
2017-03-08T00:15:48.976Z,20.77
2017-03-08T00:16:59.263Z,20.77
2017-03-08T00:18:09.456Z,20.77
2017-03-08T00:19:19.762Z,20.77
2017-03-08T00:20:30.083Z,20.74
2017-03-08T00:21:40.775Z,20.77
2017-03-08T00:22:51.461Z,20.77
2017-03-08T00:24:01.505Z,20.76
2017-03-08T00:25:11.799Z,20.77
2017-03-08T00:26:22.096Z,20.77
2017-03-08T00:27:31.993Z,20.74
2017-03-08T00:28:42.281Z,20.76
2017-03-08T00:29:52.295Z,20.76
2017-03-08T00:31:02.181Z,20.66
2017-03-08T00:32:12.468Z,20.82
2017-03-08T00:33:22.730Z,20.77
2017-03-08T00:34:32.996Z,20.67
2017-03-08T00:35:43.999Z,20.79
2017-03-08T00:36:54.278Z,20.8
2017-03-08T00:38:04.954Z,20.8
2017-03-08T00:39:15.615Z,20.84
2017-03-08T00:40:26.285Z,20.74
2017-03-08T00:41:37.282Z,20.67
2017-03-08T00:42:47.970Z,20.85
2017-03-08T00:43:58.232Z,20.79
2017-03-08T00:45:08.536Z,20.76
2017-03-08T00:46:18.419Z,20.77
2017-03-08T00:47:29.227Z,20.74
2017-03-08T00:48:39.877Z,20.74
2017-03-08T00:49:50.136Z,20.79
2017-03-08T00:51:00.419Z,20.72
2017-03-08T00:52:10.718Z,20.77
2017-03-08T00:53:21.481Z,20.7
2017-03-08T00:54:31.818Z,20.72
2017-03-08T00:55:42.487Z,20.72
2017-03-08T00:56:52.763Z,20.72
2017-03-08T00:58:03.042Z,20.82
2017-03-08T00:59:13.983Z,20.8
2017-03-08T01:00:23.869Z,20.67
2017-03-08T01:01:34.577Z,20.82
2017-03-08T01:02:44.865Z,20.61
2017-03-08T01:03:54.762Z,20.67
2017-03-08T01:05:05.371Z,20.82
2017-03-08T01:06:15.649Z,20.72
2017-03-08T01:07:25.920Z,20.69
2017-03-08T01:08:36.188Z,20.72
2017-03-08T01:09:46.468Z,20.76
2017-03-08T01:10:57.005Z,20.66
2017-03-08T01:12:07.281Z,20.67
2017-03-08T01:13:17.558Z,20.69
2017-03-08T01:14:27.825Z,20.69
2017-03-08T01:15:38.092Z,20.72
2017-03-08T01:16:48.688Z,20.73
2017-03-08T01:17:59.356Z,20.69
2017-03-08T01:19:09.665Z,20.66
2017-03-08T01:20:19.999Z,20.66
2017-03-08T01:21:30.315Z,20.7
2017-03-08T01:22:40.683Z,20.7
2017-03-08T01:23:51.379Z,20.7
2017-03-08T01:25:02.049Z,20.66
2017-03-08T01:26:12.721Z,20.64
2017-03-08T01:27:23.402Z,20.67
2017-03-08T01:28:34.451Z,20.67
2017-03-08T01:29:44.713Z,20.77
2017-03-08T01:30:55.383Z,20.66
2017-03-08T01:32:05.287Z,20.66
2017-03-08T01:33:15.557Z,20.64
2017-03-08T01:34:25.687Z,20.69
2017-03-08T01:35:35.976Z,20.72
2017-03-08T01:36:46.326Z,20.7
2017-03-08T01:37:56.724Z,20.66
2017-03-08T01:39:07.393Z,20.67
2017-03-08T01:40:18.393Z,20.73
2017-03-08T01:41:29.047Z,20.64
2017-03-08T01:42:39.721Z,20.66
2017-03-08T01:43:50.001Z,20.73
2017-03-08T01:45:00.663Z,20.7
2017-03-08T01:46:10.503Z,20.69
2017-03-08T01:47:21.167Z,20.67
2017-03-08T01:48:31.068Z,20.69
2017-03-08T01:49:41.721Z,20.67
2017-03-08T01:50:52.045Z,20.67
2017-03-08T01:52:02.635Z,20.69
2017-03-08T01:53:13.309Z,20.72
2017-03-08T01:54:23.615Z,20.72
2017-03-08T01:55:34.283Z,20.67
2017-03-08T01:56:43.789Z,20.72
2017-03-08T01:57:54.759Z,20.73
2017-03-08T01:59:05.703Z,20.74
2017-03-08T02:00:15.577Z,20.67
2017-03-08T02:01:26.245Z,20.69
2017-03-08T02:02:36.184Z,20.72
2017-03-08T02:03:47.095Z,20.69
2017-03-08T02:04:57.000Z,20.67
2017-03-08T02:06:07.307Z,20.7
2017-03-08T02:07:17.605Z,20.67
2017-03-08T02:08:28.283Z,20.69
2017-03-08T02:09:38.701Z,20.72
2017-03-08T02:10:48.973Z,20.66
2017-03-08T02:11:59.237Z,20.69
2017-03-08T02:13:09.161Z,20.66
2017-03-08T02:14:19.826Z,20.7
2017-03-08T02:15:30.675Z,20.67
2017-03-08T02:16:41.345Z,20.67
2017-03-08T02:17:51.993Z,20.62
2017-03-08T02:19:02.598Z,20.58
2017-03-08T02:20:12.095Z,20.7
2017-03-08T02:21:22.999Z,20.64
2017-03-08T02:22:33.654Z,20.61
2017-03-08T02:23:44.330Z,20.67
2017-03-08T02:24:54.608Z,20.7
2017-03-08T02:26:04.489Z,20.67
2017-03-08T02:27:15.400Z,20.62
2017-03-08T02:28:25.292Z,20.67
2017-03-08T02:29:35.562Z,20.66
2017-03-08T02:30:45.840Z,20.66
2017-03-08T02:31:56.102Z,20.59
2017-03-08T02:33:06.492Z,20.66
2017-03-08T02:34:16.771Z,20.64
2017-03-08T02:35:27.042Z,20.61
2017-03-08T02:36:37.317Z,20.66
2017-03-08T02:37:47.223Z,20.54
2017-03-08T02:38:57.807Z,20.61
2017-03-08T02:40:08.073Z,20.62
2017-03-08T02:41:17.970Z,20.58
2017-03-08T02:42:27.857Z,20.55
2017-03-08T02:43:38.530Z,20.61
2017-03-08T02:44:48.511Z,20.59
2017-03-08T02:45:58.774Z,20.57
2017-03-08T02:47:08.655Z,20.55
2017-03-08T02:48:19.340Z,20.58
2017-03-08T02:49:29.222Z,20.55
2017-03-08T02:50:39.644Z,20.59
2017-03-08T02:51:50.644Z,20.57
2017-03-08T02:53:01.328Z,20.54
2017-03-08T02:54:11.212Z,20.51
2017-03-08T02:55:21.878Z,20.55
2017-03-08T02:56:32.887Z,20.58
2017-03-08T02:57:43.556Z,20.55
2017-03-08T02:58:54.198Z,20.57
2017-03-08T03:00:04.310Z,20.58
2017-03-08T03:01:14.291Z,20.54
2017-03-08T03:02:24.828Z,20.54
2017-03-08T03:03:35.118Z,20.39
2017-03-08T03:04:45.785Z,20.54
2017-03-08T03:05:56.341Z,20.54
2017-03-08T03:07:07.009Z,20.5
2017-03-08T03:08:17.583Z,20.55
2017-03-08T03:09:27.871Z,20.54
2017-03-08T03:10:38.562Z,20.55
2017-03-08T03:11:49.232Z,20.55
2017-03-08T03:12:59.503Z,20.43
2017-03-08T03:14:09.944Z,20.57
2017-03-08T03:15:20.236Z,20.41
2017-03-08T03:16:30.910Z,20.48
2017-03-08T03:17:41.586Z,20.42
2017-03-08T03:18:51.479Z,20.43
2017-03-08T03:20:01.925Z,20.52
2017-03-08T03:21:12.227Z,20.54
2017-03-08T03:22:22.502Z,20.39
2017-03-08T03:23:33.152Z,20.41
2017-03-08T03:24:43.028Z,20.41
2017-03-08T03:25:53.581Z,20.43
2017-03-08T03:27:04.277Z,20.41
2017-03-08T03:28:14.564Z,20.51
2017-03-08T03:29:25.236Z,20.42
2017-03-08T03:30:35.921Z,20.51
2017-03-08T03:31:45.741Z,20.51
2017-03-08T03:32:56.036Z,20.54
2017-03-08T03:34:06.319Z,20.61
2017-03-08T03:35:15.842Z,20.51
2017-03-08T03:36:26.495Z,20.57
2017-03-08T03:37:36.494Z,20.52
2017-03-08T03:38:46.403Z,20.57
2017-03-08T03:39:56.676Z,20.38
2017-03-08T03:41:06.569Z,20.48
2017-03-08T03:42:17.249Z,20.51
2017-03-08T03:43:27.875Z,20.51
2017-03-08T03:44:38.564Z,20.54
2017-03-08T03:45:49.224Z,20.51
2017-03-08T03:46:59.901Z,20.51
2017-03-08T03:48:10.172Z,20.51
2017-03-08T03:49:20.599Z,20.41
2017-03-08T03:50:31.262Z,20.48
2017-03-08T03:51:41.535Z,20.47
2017-03-08T03:52:52.192Z,20.51
2017-03-08T03:54:02.476Z,20.48
2017-03-08T03:55:13.292Z,20.52
2017-03-08T03:56:23.974Z,20.52
2017-03-08T03:57:33.862Z,20.51
2017-03-08T03:58:43.770Z,20.55
2017-03-08T03:59:54.446Z,20.51
2017-03-08T04:01:05.011Z,20.39
2017-03-08T04:02:15.739Z,20.48
2017-03-08T04:03:26.042Z,20.43
2017-03-08T04:04:36.695Z,20.38
2017-03-08T04:05:47.344Z,20.47
2017-03-08T04:06:58.299Z,20.43
2017-03-08T04:08:08.565Z,20.51
2017-03-08T04:09:18.458Z,20.5
2017-03-08T04:10:28.761Z,20.5
2017-03-08T04:11:39.046Z,20.5
2017-03-08T04:12:49.470Z,20.43
2017-03-08T04:13:59.750Z,20.55
2017-03-08T04:15:10.448Z,20.48
2017-03-08T04:16:20.336Z,20.47
2017-03-08T04:17:31.019Z,20.5
2017-03-08T04:18:41.566Z,20.41
2017-03-08T04:19:52.230Z,20.52
2017-03-08T04:21:03.198Z,20.5
2017-03-08T04:22:13.480Z,20.35
2017-03-08T04:23:23.757Z,20.48
2017-03-08T04:24:33.894Z,20.41
2017-03-08T04:25:43.431Z,20.51
2017-03-08T04:26:54.092Z,20.54
2017-03-08T04:28:04.387Z,20.5
2017-03-08T04:29:14.269Z,20.51
2017-03-08T04:30:24.655Z,20.42
2017-03-08T04:31:34.914Z,20.54
2017-03-08T04:32:45.191Z,20.42
2017-03-08T04:33:55.860Z,20.41
2017-03-08T04:35:06.159Z,20.48
2017-03-08T04:36:16.124Z,20.52
2017-03-08T04:37:26.791Z,20.52
2017-03-08T04:38:36.656Z,20.54
2017-03-08T04:39:47.307Z,20.48
2017-03-08T04:40:57.970Z,20.48
2017-03-08T04:42:08.576Z,20.52
2017-03-08T04:43:18.843Z,20.51
2017-03-08T04:44:29.538Z,20.47
2017-03-08T04:45:39.817Z,20.43
2017-03-08T04:46:50.099Z,20.5
2017-03-08T04:48:00.543Z,20.39
2017-03-08T04:49:11.225Z,20.48
2017-03-08T04:50:21.112Z,20.41
2017-03-08T04:51:31.388Z,20.47
2017-03-08T04:52:41.665Z,20.43
2017-03-08T04:53:52.672Z,20.43
2017-03-08T04:55:03.349Z,20.39
2017-03-08T04:56:13.619Z,20.52
2017-03-08T04:57:24.281Z,20.48
2017-03-08T04:58:34.931Z,20.39
2017-03-08T04:59:45.836Z,20.48
2017-03-08T05:00:56.099Z,20.43
2017-03-08T05:02:06.815Z,20.47
2017-03-08T05:03:16.725Z,20.42
2017-03-08T05:04:27.027Z,20.43
2017-03-08T05:05:37.936Z,20.43
2017-03-08T05:06:48.226Z,20.48
2017-03-08T05:07:58.873Z,20.43
2017-03-08T05:09:09.158Z,20.39
2017-03-08T05:10:19.477Z,20.42
2017-03-08T05:11:30.060Z,20.39
2017-03-08T05:12:40.716Z,20.38
2017-03-08T05:13:50.997Z,20.42
2017-03-08T05:15:01.672Z,20.38
2017-03-08T05:16:12.328Z,20.38
2017-03-08T05:17:22.702Z,20.47
2017-03-08T05:18:32.204Z,20.41
2017-03-08T05:19:42.504Z,20.41
2017-03-08T05:20:53.198Z,20.41
2017-03-08T05:22:03.867Z,20.41
2017-03-08T05:23:14.485Z,20.39
2017-03-08T05:24:25.151Z,20.42
2017-03-08T05:25:35.837Z,20.39
2017-03-08T05:26:46.529Z,20.41
2017-03-08T05:27:57.212Z,20.39
2017-03-08T05:29:07.742Z,20.39
2017-03-08T05:30:18.009Z,20.39
2017-03-08T05:31:28.704Z,20.48
2017-03-08T05:32:38.991Z,20.42
2017-03-08T05:33:49.664Z,20.41
2017-03-08T05:35:00.246Z,20.36
2017-03-08T05:36:10.531Z,20.39
2017-03-08T05:37:20.081Z,20.38
2017-03-08T05:38:29.965Z,20.36
2017-03-08T05:39:40.301Z,20.42
2017-03-08T05:40:50.832Z,20.38
2017-03-08T05:42:01.097Z,20.47
2017-03-08T05:43:11.277Z,20.47
2017-03-08T05:44:21.980Z,20.36
2017-03-08T05:45:32.643Z,20.41
2017-03-08T05:46:43.732Z,20.42
2017-03-08T05:47:54.015Z,20.48
2017-03-08T05:49:04.304Z,20.41
2017-03-08T05:50:14.973Z,20.43
2017-03-08T05:51:25.251Z,20.43
2017-03-08T05:52:35.798Z,20.47
2017-03-08T05:53:45.695Z,20.38
2017-03-08T05:54:56.389Z,20.42
2017-03-08T05:56:06.659Z,20.47
2017-03-08T05:57:16.937Z,20.41
2017-03-08T05:58:27.375Z,20.42
2017-03-08T05:59:37.652Z,20.41
2017-03-08T06:00:48.321Z,20.38
2017-03-08T06:01:58.605Z,20.36
2017-03-08T06:03:09.280Z,20.39
2017-03-08T06:04:19.054Z,20.42
2017-03-08T06:05:28.941Z,20.41
2017-03-08T06:06:39.599Z,20.42
2017-03-08T06:07:49.863Z,20.41
2017-03-08T06:09:00.533Z,20.41
2017-03-08T06:10:11.351Z,20.41
2017-03-08T06:11:22.020Z,20.42
2017-03-08T06:12:31.970Z,20.36
2017-03-08T06:13:42.674Z,20.43
2017-03-08T06:14:52.590Z,20.41
2017-03-08T06:16:03.500Z,20.38
2017-03-08T06:17:13.780Z,20.41
2017-03-08T06:18:24.446Z,20.42
2017-03-08T06:19:34.719Z,20.38
2017-03-08T06:20:44.258Z,20.5
2017-03-08T06:21:55.025Z,20.38
2017-03-08T06:23:05.336Z,20.47
2017-03-08T06:24:15.642Z,20.41
2017-03-08T06:25:25.528Z,20.41
2017-03-08T06:26:36.213Z,20.42
2017-03-08T06:27:47.237Z,20.41
2017-03-08T06:28:57.509Z,20.41
2017-03-08T06:30:07.799Z,20.42
2017-03-08T06:31:18.480Z,20.38
2017-03-08T06:32:28.354Z,20.38
2017-03-08T06:33:39.280Z,20.43
2017-03-08T06:34:49.933Z,20.41
2017-03-08T06:35:59.860Z,20.42
2017-03-08T06:37:10.513Z,20.39
2017-03-08T06:38:21.189Z,20.43
2017-03-08T06:39:32.109Z,20.43
2017-03-08T06:40:42.764Z,20.52
2017-03-08T06:41:52.272Z,20.57
2017-03-08T06:43:02.591Z,20.72
2017-03-08T06:44:13.273Z,20.69
2017-03-08T06:45:24.043Z,20.73
2017-03-08T06:46:34.720Z,20.72
2017-03-08T06:47:45.394Z,20.77
2017-03-08T06:48:56.072Z,20.87
2017-03-08T06:50:05.577Z,20.8
2017-03-08T06:51:16.091Z,20.84
2017-03-08T06:52:26.760Z,20.91
2017-03-08T06:53:37.432Z,20.95
2017-03-08T06:54:47.701Z,21.01
2017-03-08T06:55:57.986Z,21.04
2017-03-08T06:57:08.141Z,21.14
2017-03-08T06:58:18.808Z,21.12
2017-03-08T06:59:29.078Z,21.24
2017-03-08T07:00:39.739Z,21.31
2017-03-08T07:01:50.399Z,21.42
2017-03-08T07:03:00.438Z,21.47
2017-03-08T07:04:11.120Z,21.37
2017-03-08T07:05:21.006Z,21.49
2017-03-08T07:06:31.288Z,21.56
2017-03-08T07:07:41.193Z,21.56
2017-03-08T07:08:51.812Z,21.64
2017-03-08T07:10:02.153Z,21.61
2017-03-08T07:11:12.459Z,21.68
2017-03-08T07:12:23.170Z,21.67
2017-03-08T07:13:33.486Z,21.77
2017-03-08T07:14:43.941Z,21.79
2017-03-08T07:15:54.633Z,21.86
2017-03-08T07:17:05.328Z,21.91
2017-03-08T07:18:15.624Z,22
2017-03-08T07:19:26.281Z,22
2017-03-08T07:20:37.134Z,21.98
2017-03-08T07:21:47.413Z,22
2017-03-08T07:22:57.318Z,22.09
2017-03-08T07:24:07.979Z,22.09
2017-03-08T07:25:18.292Z,22.15
2017-03-08T07:26:29.128Z,22.22
2017-03-08T07:27:39.796Z,22.25
2017-03-08T07:28:49.706Z,22.28
2017-03-08T07:30:00.394Z,22.3
2017-03-08T07:31:10.692Z,22.28
2017-03-08T07:32:21.058Z,22.33
2017-03-08T07:33:30.999Z,22.31
2017-03-08T07:34:41.299Z,22.46
2017-03-08T07:35:51.593Z,22.39
2017-03-08T07:37:01.499Z,22.54
2017-03-08T07:38:12.037Z,22.57
2017-03-08T07:39:22.342Z,22.61
2017-03-08T07:40:32.614Z,22.6
2017-03-08T07:41:43.307Z,22.58
2017-03-08T07:42:53.196Z,22.57
2017-03-08T07:44:03.647Z,22.67
2017-03-08T07:45:14.308Z,22.58
2017-03-08T07:46:24.584Z,22.67
2017-03-08T07:47:34.867Z,22.73
2017-03-08T07:48:45.547Z,22.72
2017-03-08T07:49:56.369Z,22.7
2017-03-08T07:51:06.244Z,22.65
2017-03-08T07:52:16.903Z,22.72
2017-03-08T07:53:26.803Z,22.7
2017-03-08T07:54:37.077Z,22.67
2017-03-08T07:55:48.117Z,22.68
2017-03-08T07:56:57.998Z,22.57
2017-03-08T07:58:08.300Z,22.64
2017-03-08T07:59:18.578Z,22.58
2017-03-08T08:00:29.258Z,22.7
2017-03-08T08:01:39.642Z,22.68
2017-03-08T08:02:50.310Z,22.62
2017-03-08T08:04:00.580Z,22.61
2017-03-08T08:05:10.103Z,22.58
2017-03-08T08:06:20.379Z,22.51
2017-03-08T08:07:30.366Z,22.58
2017-03-08T08:08:41.056Z,22.58
2017-03-08T08:09:51.770Z,22.54
2017-03-08T08:11:02.053Z,22.39
2017-03-08T08:12:12.735Z,22.51
2017-03-08T08:13:23.702Z,22.42
2017-03-08T08:14:33.991Z,22.4
2017-03-08T08:15:44.692Z,22.45
2017-03-08T08:16:54.974Z,22.46
2017-03-08T08:18:05.687Z,22.37
2017-03-08T08:19:16.311Z,22.37
2017-03-08T08:20:25.803Z,22.33
2017-03-08T08:21:36.108Z,22.27
2017-03-08T08:22:46.406Z,22.33
2017-03-08T08:23:56.293Z,22.27
2017-03-08T08:25:07.213Z,22.3
2017-03-08T08:26:17.107Z,22.25
2017-03-08T08:27:27.407Z,22.25
2017-03-08T08:28:36.904Z,22.21
2017-03-08T08:29:47.193Z,22.21
2017-03-08T08:30:57.713Z,22.17
2017-03-08T08:32:07.618Z,22.15
2017-03-08T08:33:17.899Z,22.05
2017-03-08T08:34:27.801Z,22.05
2017-03-08T08:35:38.464Z,22.07
2017-03-08T08:36:49.494Z,22.1
2017-03-08T08:37:59.798Z,21.99
2017-03-08T08:39:10.486Z,22.03
2017-03-08T08:40:20.776Z,21.96
2017-03-08T08:41:31.105Z,22.03
2017-03-08T08:42:41.932Z,21.94
2017-03-08T08:43:52.209Z,22
2017-03-08T08:45:02.518Z,21.91
2017-03-08T08:46:12.805Z,21.96
2017-03-08T08:47:23.485Z,21.94
2017-03-08T08:48:34.417Z,21.96
2017-03-08T08:49:44.720Z,21.86
2017-03-08T08:50:55.017Z,21.84
2017-03-08T08:52:05.691Z,21.92
2017-03-08T08:53:15.998Z,21.83
2017-03-08T08:54:26.157Z,21.82
2017-03-08T08:55:36.832Z,21.72
2017-03-08T08:56:47.106Z,21.88
2017-03-08T08:57:57.794Z,21.82
2017-03-08T08:59:07.714Z,21.75
2017-03-08T09:00:18.414Z,21.79
2017-03-08T09:01:28.704Z,21.8
2017-03-08T09:02:38.999Z,21.72
2017-03-08T09:03:49.683Z,21.74
2017-03-08T09:04:59.596Z,21.69
2017-03-08T09:06:10.049Z,21.68
2017-03-08T09:07:20.731Z,21.68
2017-03-08T09:08:31.010Z,21.67
2017-03-08T09:09:41.332Z,21.64
2017-03-08T09:10:51.617Z,21.68
2017-03-08T09:12:02.157Z,21.61
2017-03-08T09:13:12.051Z,21.62
2017-03-08T09:14:22.658Z,21.52
2017-03-08T09:15:33.382Z,21.56
2017-03-08T09:16:43.677Z,21.5
2017-03-08T09:17:53.760Z,21.61
2017-03-08T09:19:04.074Z,21.54
2017-03-08T09:20:13.600Z,21.53
2017-03-08T09:21:23.474Z,21.54
2017-03-08T09:22:33.742Z,21.49
2017-03-08T09:23:44.109Z,21.47
2017-03-08T09:24:54.406Z,21.47
2017-03-08T09:26:05.080Z,21.44
2017-03-08T09:27:15.744Z,21.42
2017-03-08T09:28:25.240Z,21.4
2017-03-08T09:29:36.221Z,21.46
2017-03-08T09:30:46.483Z,21.44
2017-03-08T09:31:56.782Z,21.34
2017-03-08T09:33:07.441Z,21.34
2017-03-08T09:34:17.760Z,21.34
2017-03-08T09:35:27.761Z,21.37
2017-03-08T09:36:38.055Z,21.38
2017-03-08T09:37:48.718Z,21.4
2017-03-08T09:38:58.601Z,21.31
2017-03-08T09:40:08.893Z,21.34
2017-03-08T09:41:19.712Z,21.31
2017-03-08T09:42:30.368Z,21.29
2017-03-08T09:43:40.265Z,21.32
2017-03-08T09:44:50.563Z,21.31
2017-03-08T09:46:00.480Z,21.25
2017-03-08T09:47:10.557Z,21.22
2017-03-08T09:48:20.043Z,21.28
2017-03-08T09:49:30.749Z,21.22
2017-03-08T09:50:40.666Z,21.22
2017-03-08T09:51:51.343Z,21.24
2017-03-08T09:53:01.400Z,21.24
2017-03-08T09:54:12.061Z,21.29
2017-03-08T09:55:22.735Z,21.21
2017-03-08T09:56:33.016Z,21.24
2017-03-08T09:57:43.719Z,21.28
2017-03-08T09:58:54.723Z,21.27
2017-03-08T10:00:04.935Z,21.24
2017-03-08T10:01:15.619Z,21.22
2017-03-08T10:02:25.912Z,21.14
2017-03-08T10:03:36.596Z,21.16
2017-03-08T10:04:46.973Z,21.16
2017-03-08T10:05:57.644Z,21.22
2017-03-08T10:07:07.967Z,21.16
2017-03-08T10:08:18.253Z,21.22
2017-03-08T10:09:28.568Z,21.22
2017-03-08T10:10:39.186Z,21.21
2017-03-08T10:11:49.475Z,21.16
2017-03-08T10:12:59.782Z,21.21
2017-03-08T10:14:09.671Z,21.21
2017-03-08T10:15:19.594Z,21.12
2017-03-08T10:16:30.120Z,21.12
2017-03-08T10:17:40.811Z,21.16
2017-03-08T10:18:51.487Z,21.17
2017-03-08T10:20:00.993Z,21.14
2017-03-08T10:21:10.909Z,21.21
2017-03-08T10:22:21.342Z,21.13
2017-03-08T10:23:31.630Z,21.14
2017-03-08T10:24:42.315Z,21.17
2017-03-08T10:25:53.001Z,21.13
2017-03-08T10:27:03.321Z,21.16
2017-03-08T10:28:14.318Z,21.13
2017-03-08T10:29:24.598Z,21.16
2017-03-08T10:30:34.489Z,21.16
2017-03-08T10:31:45.176Z,21.12
2017-03-08T10:32:55.823Z,21.13
2017-03-08T10:34:06.271Z,21.14
2017-03-08T10:35:16.530Z,21.13
2017-03-08T10:36:26.824Z,21.14
2017-03-08T10:37:37.111Z,21.16
2017-03-08T10:38:47.395Z,21.1
2017-03-08T10:39:57.975Z,21.14
2017-03-08T10:41:08.278Z,21.1
2017-03-08T10:42:18.851Z,21.1
2017-03-08T10:43:29.123Z,21.14
2017-03-08T10:44:39.016Z,21.1
2017-03-08T10:45:49.627Z,21.13
2017-03-08T10:46:59.896Z,21.13
2017-03-08T10:48:10.577Z,21.13
2017-03-08T10:49:20.098Z,21.12
2017-03-08T10:50:30.772Z,21.07
2017-03-08T10:51:40.911Z,21.16
2017-03-08T10:52:51.596Z,21.14
2017-03-08T10:54:02.279Z,21.16
2017-03-08T10:55:12.984Z,21.13
2017-03-08T10:56:23.654Z,21.14
2017-03-08T10:57:34.706Z,21.19
2017-03-08T10:58:45.000Z,21.17
2017-03-08T10:59:55.263Z,21.13
2017-03-08T11:01:05.931Z,21.12
2017-03-08T11:02:15.886Z,21.13
2017-03-08T11:03:26.172Z,21.04
2017-03-08T11:04:36.828Z,21.13
2017-03-08T11:05:47.110Z,21.06
2017-03-08T11:06:57.801Z,20.99
2017-03-08T11:08:08.498Z,21.12
2017-03-08T11:09:18.705Z,21.12
2017-03-08T11:10:29.032Z,21.01
2017-03-08T11:11:39.334Z,21.07
2017-03-08T11:12:50.028Z,21.03
2017-03-08T11:13:59.943Z,21.04
2017-03-08T11:15:10.389Z,21.06
2017-03-08T11:16:21.073Z,21.04
2017-03-08T11:17:31.373Z,21.14
2017-03-08T11:18:40.898Z,21.06
2017-03-08T11:19:50.806Z,21.03
2017-03-08T11:21:00.678Z,21.1
2017-03-08T11:22:10.982Z,21.06
2017-03-08T11:23:21.663Z,21.01
2017-03-08T11:24:31.935Z,21.04
2017-03-08T11:25:42.220Z,21.04
2017-03-08T11:26:53.163Z,21.04
2017-03-08T11:28:03.084Z,21.01
2017-03-08T11:29:12.992Z,21.06
2017-03-08T11:30:23.288Z,21.06
2017-03-08T11:31:33.592Z,21.07
2017-03-08T11:32:43.187Z,21.04
2017-03-08T11:33:53.867Z,21.04
2017-03-08T11:35:04.165Z,21.09
2017-03-08T11:36:13.663Z,21.04
2017-03-08T11:37:24.321Z,21.09
2017-03-08T11:38:34.897Z,21.1
2017-03-08T11:39:45.156Z,21.01
2017-03-08T11:40:55.833Z,20.99
2017-03-08T11:42:06.495Z,21.1
2017-03-08T11:43:16.015Z,21.03
2017-03-08T11:44:25.815Z,21.04
2017-03-08T11:45:36.107Z,21.06
2017-03-08T11:46:46.792Z,20.94
2017-03-08T11:47:57.466Z,20.95
2017-03-08T11:49:06.997Z,21.03
2017-03-08T11:50:17.977Z,21.03
2017-03-08T11:51:28.644Z,21.03
2017-03-08T11:52:38.949Z,20.98
2017-03-08T11:53:49.251Z,20.99
2017-03-08T11:54:59.920Z,21.01
2017-03-08T11:56:10.112Z,20.97
2017-03-08T11:57:20.798Z,20.95
2017-03-08T11:58:31.104Z,20.97
2017-03-08T11:59:41.371Z,21.06
2017-03-08T12:00:51.648Z,20.97
2017-03-08T12:02:02.058Z,21.01
2017-03-08T12:03:12.329Z,20.97
2017-03-08T12:04:22.264Z,20.99
2017-03-08T12:05:32.938Z,20.97
2017-03-08T12:06:43.218Z,21.01
2017-03-08T12:07:53.845Z,20.97
2017-03-08T12:09:04.124Z,20.97
2017-03-08T12:10:14.388Z,20.92
2017-03-08T12:11:24.278Z,21.06
2017-03-08T12:12:34.976Z,20.99
2017-03-08T12:13:44.176Z,20.94
2017-03-08T12:14:54.458Z,20.95
2017-03-08T12:16:05.146Z,20.95
2017-03-08T12:17:15.431Z,20.94
2017-03-08T12:18:26.096Z,21.03
2017-03-08T12:19:37.022Z,20.98
2017-03-08T12:20:47.286Z,20.99
2017-03-08T12:21:57.965Z,20.94
2017-03-08T12:23:08.634Z,20.92
2017-03-08T12:24:19.316Z,20.99
2017-03-08T12:25:29.501Z,20.97
2017-03-08T12:26:38.989Z,20.92
2017-03-08T12:27:48.873Z,20.99
2017-03-08T12:28:59.161Z,20.97
2017-03-08T12:30:09.832Z,21.03
2017-03-08T12:31:20.665Z,20.98
2017-03-08T12:32:30.949Z,20.98
2017-03-08T12:33:41.244Z,20.95
2017-03-08T12:34:51.524Z,20.95
2017-03-08T12:36:00.644Z,20.92
2017-03-08T12:37:10.879Z,21.01
2017-03-08T12:38:20.793Z,20.97
2017-03-08T12:39:31.475Z,20.97
2017-03-08T12:40:41.774Z,20.94
2017-03-08T12:41:52.455Z,20.97
2017-03-08T12:43:03.493Z,20.99
2017-03-08T12:44:14.283Z,21.01
2017-03-08T12:45:23.804Z,20.95
2017-03-08T12:46:33.712Z,20.92
2017-03-08T12:47:43.221Z,21.03
2017-03-08T12:48:53.746Z,20.99
2017-03-08T12:50:04.424Z,20.98
2017-03-08T12:51:15.103Z,20.95
2017-03-08T12:52:25.766Z,20.92
2017-03-08T12:53:36.052Z,20.99
2017-03-08T12:54:45.636Z,21.03
2017-03-08T12:55:55.897Z,20.98
2017-03-08T12:57:06.165Z,20.97
2017-03-08T12:58:16.060Z,20.95
2017-03-08T12:59:26.739Z,20.99
2017-03-08T13:00:36.382Z,20.98
2017-03-08T13:01:46.661Z,20.97
2017-03-08T13:02:56.929Z,20.98
2017-03-08T13:04:07.619Z,20.97
2017-03-08T13:05:17.902Z,20.95
2017-03-08T13:06:28.721Z,20.89
2017-03-08T13:07:40.108Z,20.94
2017-03-08T13:08:50.248Z,20.98
2017-03-08T13:10:00.530Z,20.95
2017-03-08T13:11:10.845Z,20.95
2017-03-08T13:12:21.837Z,20.89
2017-03-08T13:13:32.148Z,20.91
2017-03-08T13:14:42.438Z,20.89
2017-03-08T13:15:52.714Z,20.92
2017-03-08T13:17:01.845Z,21.04
2017-03-08T13:18:12.632Z,20.97
2017-03-08T13:19:23.571Z,20.94
2017-03-08T13:20:33.870Z,20.94
2017-03-08T13:21:44.531Z,20.98
2017-03-08T13:22:55.172Z,20.92
2017-03-08T13:24:05.713Z,20.98
2017-03-08T13:25:16.380Z,20.98
2017-03-08T13:26:27.055Z,20.98
2017-03-08T13:27:36.939Z,20.92
2017-03-08T13:28:47.592Z,20.99
2017-03-08T13:29:58.372Z,21.01
2017-03-08T13:31:08.254Z,20.95
2017-03-08T13:32:18.161Z,20.92
2017-03-08T13:33:28.836Z,20.95
2017-03-08T13:34:39.504Z,20.98
2017-03-08T13:35:49.720Z,20.98
2017-03-08T13:37:00.385Z,20.95
2017-03-08T13:38:11.039Z,20.92
2017-03-08T13:39:21.333Z,20.98
2017-03-08T13:40:31.619Z,20.94
2017-03-08T13:41:42.584Z,20.95
2017-03-08T13:42:52.857Z,20.94
2017-03-08T13:44:03.525Z,20.91
2017-03-08T13:45:13.032Z,20.88
2017-03-08T13:46:23.327Z,20.97
2017-03-08T13:47:33.774Z,20.92
2017-03-08T13:48:43.687Z,20.92
2017-03-08T13:49:53.961Z,20.95
2017-03-08T13:51:04.627Z,20.94
2017-03-08T13:52:15.271Z,20.94
2017-03-08T13:53:25.600Z,20.95
2017-03-08T13:54:35.490Z,20.92
2017-03-08T13:55:44.975Z,20.88
2017-03-08T13:56:55.638Z,20.82
2017-03-08T13:58:06.322Z,20.85
2017-03-08T13:59:16.712Z,20.89
2017-03-08T14:00:26.579Z,20.91
2017-03-08T14:01:37.251Z,20.82
2017-03-08T14:02:47.925Z,20.85
2017-03-08T14:03:58.196Z,20.82
2017-03-08T14:05:08.814Z,20.84
2017-03-08T14:06:19.485Z,20.85
2017-03-08T14:07:29.767Z,20.82
2017-03-08T14:08:40.059Z,20.82
2017-03-08T14:09:50.719Z,20.82
2017-03-08T14:11:01.688Z,20.88
2017-03-08T14:12:11.950Z,20.91
2017-03-08T14:13:21.833Z,20.84
2017-03-08T14:14:32.488Z,20.84
2017-03-08T14:15:42.386Z,20.84
2017-03-08T14:16:52.900Z,20.8
2017-03-08T14:18:03.158Z,20.92
2017-03-08T14:19:13.818Z,20.87
2017-03-08T14:20:24.476Z,20.87
2017-03-08T14:21:34.798Z,20.79
2017-03-08T14:22:44.833Z,20.77
2017-03-08T14:23:54.741Z,20.85
2017-03-08T14:25:05.031Z,20.82
2017-03-08T14:26:15.685Z,20.76
2017-03-08T14:27:26.362Z,20.79
2017-03-08T14:28:36.395Z,20.76
2017-03-08T14:29:46.659Z,20.79
2017-03-08T14:30:56.954Z,20.76
2017-03-08T14:32:07.262Z,20.79
2017-03-08T14:33:17.159Z,20.76
2017-03-08T14:34:27.410Z,20.79
2017-03-08T14:35:37.310Z,20.77
2017-03-08T14:36:46.806Z,20.74
2017-03-08T14:37:57.069Z,20.84
2017-03-08T14:39:06.953Z,20.87
2017-03-08T14:40:17.490Z,20.77
2017-03-08T14:41:28.149Z,20.87
2017-03-08T14:42:38.035Z,20.79
2017-03-08T14:43:48.355Z,20.76
2017-03-08T14:44:58.645Z,20.82
2017-03-08T14:46:09.425Z,20.79
2017-03-08T14:47:19.713Z,20.79
2017-03-08T14:48:29.617Z,20.8
2017-03-08T14:49:39.907Z,20.77
2017-03-08T14:50:50.192Z,20.76
2017-03-08T14:52:00.754Z,20.77
2017-03-08T14:53:10.631Z,20.76
2017-03-08T14:54:21.288Z,20.8
2017-03-08T14:55:30.797Z,20.77
2017-03-08T14:56:41.064Z,20.85
2017-03-08T14:57:51.516Z,20.77
2017-03-08T14:59:02.172Z,20.8
2017-03-08T15:00:12.450Z,20.74
2017-03-08T15:01:22.721Z,20.77
2017-03-08T15:02:32.982Z,20.84
2017-03-08T15:03:43.345Z,20.77
2017-03-08T15:04:53.611Z,20.8
2017-03-08T15:06:03.523Z,20.72
2017-03-08T15:07:14.187Z,20.82
2017-03-08T15:08:24.076Z,20.87